sensor_id;sensor_type;location;lat;lon;timestamp;temperature;humidity
19952;DHT22;10137;49.406;19.484;2023-01-01T00:02:27;9.60;99.90
19952;DHT22;10137;49.406;19.484;2023-01-01T00:04:56;9.70;99.90
19952;DHT22;10137;49.406;19.484;2023-01-01T00:07:24;9.70;99.90
19952;DHT22;10137;49.406;19.484;2023-01-01T00:09:52;9.80;99.90
19952;DHT22;10137;49.406;19.484;2023-01-01T00:12:38;9.80;99.90
19952;DHT22;10137;49.406;19.484;2023-01-01T00:15:07;9.90;99.90
19952;DHT22;10137;49.406;19.484;2023-01-01T00:17:35;9.90;99.90
19952;DHT22;10137;49.406;19.484;2023-01-01T00:20:04;9.90;99.90
19952;DHT22;10137;49.406;19.484;2023-01-01T00:22:34;10.00;99.90
19952;DHT22;10137;49.406;19.484;2023-01-01T00:25:02;10.00;99.90
19952;DHT22;10137;49.406;19.484;2023-01-01T00:27:30;10.00;99.90
19952;DHT22;10137;49.406;19.484;2023-01-01T00:29:59;10.10;99.90
19952;DHT22;10137;49.406;19.484;2023-01-01T00:32:27;10.10;99.90
19952;DHT22;10137;49.406;19.484;2023-01-01T00:34:55;10.10;99.90
19952;DHT22;10137;49.406;19.484;2023-01-01T00:37:22;9.90;99.90
19952;DHT22;10137;49.406;19.484;2023-01-01T00:39:51;9.70;99.90
19952;DHT22;10137;49.406;19.484;2023-01-01T00:42:20;9.60;99.90
19952;DHT22;10137;49.406;19.484;2023-01-01T00:44:48;9.50;99.90
19952;DHT22;10137;49.406;19.484;2023-01-01T00:47:16;9.50;99.90
19952;DHT22;10137;49.406;19.484;2023-01-01T00:49:43;9.30;99.90
19952;DHT22;10137;49.406;19.484;2023-01-01T00:52:11;9.20;99.90
19952;DHT22;10137;49.406;19.484;2023-01-01T00:54:40;9.20;99.90
19952;DHT22;10137;49.406;19.484;2023-01-01T00:57:09;9.20;99.90
19952;DHT22;10137;49.406;19.484;2023-01-01T00:59:38;9.40;99.90
19952;DHT22;10137;49.406;19.484;2023-01-01T01:02:06;9.60;99.90
19952;DHT22;10137;49.406;19.484;2023-01-01T01:04:35;9.70;99.90
19952;DHT22;10137;49.406;19.484;2023-01-01T01:07:03;9.80;99.90
19952;DHT22;10137;49.406;19.484;2023-01-01T01:09:31;9.90;99.90
19952;DHT22;10137;49.406;19.484;2023-01-01T01:12:00;9.80;99.90
19952;DHT22;10137;49.406;19.484;2023-01-01T01:14:29;9.80;99.90
19952;DHT22;10137;49.406;19.484;2023-01-01T01:16:57;9.60;99.90
19952;DHT22;10137;49.406;19.484;2023-01-01T01:19:24;9.60;99.90
19952;DHT22;10137;49.406;19.484;2023-01-01T01:21:53;9.60;99.90
19952;DHT22;10137;49.406;19.484;2023-01-01T01:24:21;9.50;99.90
19952;DHT22;10137;49.406;19.484;2023-01-01T01:26:49;9.60;99.90
19952;DHT22;10137;49.406;19.484;2023-01-01T01:29:17;9.60;99.90
19952;DHT22;10137;49.406;19.484;2023-01-01T01:31:45;9.70;99.90
19952;DHT22;10137;49.406;19.484;2023-01-01T01:34:15;9.80;99.90
19952;DHT22;10137;49.406;19.484;2023-01-01T01:36:43;9.80;99.90
19952;DHT22;10137;49.406;19.484;2023-01-01T01:39:12;9.90;99.90
19952;DHT22;10137;49.406;19.484;2023-01-01T01:41:40;9.90;99.90
19952;DHT22;10137;49.406;19.484;2023-01-01T01:47:26;9.90;99.90
19952;DHT22;10137;49.406;19.484;2023-01-01T01:49:58;10.00;99.90
19952;DHT22;10137;49.406;19.484;2023-01-01T01:52:27;9.90;99.90
19952;DHT22;10137;49.406;19.484;2023-01-01T01:54:58;9.90;99.90
19952;DHT22;10137;49.406;19.484;2023-01-01T01:57:28;9.70;99.90
19952;DHT22;10137;49.406;19.484;2023-01-01T01:59:57;9.60;99.90
19952;DHT22;10137;49.406;19.484;2023-01-01T02:02:32;9.40;99.90
19952;DHT22;10137;49.406;19.484;2023-01-01T02:05:02;9.10;99.90
19952;DHT22;10137;49.406;19.484;2023-01-01T02:07:30;8.90;99.90
19952;DHT22;10137;49.406;19.484;2023-01-01T02:10:00;8.90;99.90
19952;DHT22;10137;49.406;19.484;2023-01-01T02:12:29;8.80;99.90
19952;DHT22;10137;49.406;19.484;2023-01-01T02:14:57;8.80;99.90
19952;DHT22;10137;49.406;19.484;2023-01-01T02:17:32;8.70;99.90
19952;DHT22;10137;49.406;19.484;2023-01-01T02:20:17;8.80;99.90
19952;DHT22;10137;49.406;19.484;2023-01-01T02:26:05;8.70;99.90
19952;DHT22;10137;49.406;19.484;2023-01-01T02:28:48;8.70;99.90
19952;DHT22;10137;49.406;19.484;2023-01-01T02:31:21;8.70;99.90
19952;DHT22;10137;49.406;19.484;2023-01-01T02:33:54;8.60;99.90
19952;DHT22;10137;49.406;19.484;2023-01-01T02:36:24;8.60;99.90
19952;DHT22;10137;49.406;19.484;2023-01-01T02:38:54;8.60;99.90
19952;DHT22;10137;49.406;19.484;2023-01-01T02:41:26;8.60;99.90
19952;DHT22;10137;49.406;19.484;2023-01-01T02:43:56;8.60;99.90
19952;DHT22;10137;49.406;19.484;2023-01-01T02:46:30;8.60;99.90
19952;DHT22;10137;49.406;19.484;2023-01-01T02:48:58;8.50;99.90
19952;DHT22;10137;49.406;19.484;2023-01-01T02:51:34;8.50;99.90
19952;DHT22;10137;49.406;19.484;2023-01-01T02:54:11;8.40;99.90
19952;DHT22;10137;49.406;19.484;2023-01-01T02:56:44;8.30;99.90
19952;DHT22;10137;49.406;19.484;2023-01-01T02:59:24;8.20;99.90
19952;DHT22;10137;49.406;19.484;2023-01-01T03:02:16;8.20;99.90
19952;DHT22;10137;49.406;19.484;2023-01-01T03:04:56;8.20;99.90
19952;DHT22;10137;49.406;19.484;2023-01-01T03:07:37;8.20;99.90
19952;DHT22;10137;49.406;19.484;2023-01-01T03:10:13;8.20;99.90
19952;DHT22;10137;49.406;19.484;2023-01-01T03:12:46;8.30;99.90
19952;DHT22;10137;49.406;19.484;2023-01-01T03:15:23;8.30;99.90
19952;DHT22;10137;49.406;19.484;2023-01-01T03:17:58;8.20;99.90
19952;DHT22;10137;49.406;19.484;2023-01-01T03:20:32;8.20;99.90
19952;DHT22;10137;49.406;19.484;2023-01-01T03:23:03;8.20;99.90
19952;DHT22;10137;49.406;19.484;2023-01-01T03:25:35;8.20;99.90
19952;DHT22;10137;49.406;19.484;2023-01-01T03:28:10;8.10;99.90
19952;DHT22;10137;49.406;19.484;2023-01-01T03:30:43;8.00;99.90
19952;DHT22;10137;49.406;19.484;2023-01-01T03:33:16;8.00;99.90
19952;DHT22;10137;49.406;19.484;2023-01-01T03:35:48;8.00;99.90
19952;DHT22;10137;49.406;19.484;2023-01-01T03:38:20;8.00;99.90
19952;DHT22;10137;49.406;19.484;2023-01-01T03:40:52;8.00;99.90
19952;DHT22;10137;49.406;19.484;2023-01-01T03:43:28;8.00;99.90
19952;DHT22;10137;49.406;19.484;2023-01-01T03:46:00;8.00;99.90
19952;DHT22;10137;49.406;19.484;2023-01-01T03:48:30;8.10;99.90
19952;DHT22;10137;49.406;19.484;2023-01-01T03:51:24;8.10;99.90
19952;DHT22;10137;49.406;19.484;2023-01-01T03:53:57;8.20;99.90
19952;DHT22;10137;49.406;19.484;2023-01-01T03:56:32;8.10;99.90
19952;DHT22;10137;49.406;19.484;2023-01-01T03:59:08;7.80;99.90
19952;DHT22;10137;49.406;19.484;2023-01-01T04:01:43;7.70;99.90
19952;DHT22;10137;49.406;19.484;2023-01-01T04:04:13;7.70;99.90
19952;DHT22;10137;49.406;19.484;2023-01-01T04:06:42;7.60;99.90
19952;DHT22;10137;49.406;19.484;2023-01-01T04:09:20;7.60;99.90
19952;DHT22;10137;49.406;19.484;2023-01-01T04:11:49;7.60;99.90
19952;DHT22;10137;49.406;19.484;2023-01-01T04:14:32;7.70;99.90
19952;DHT22;10137;49.406;19.484;2023-01-01T04:17:03;7.70;99.90
19952;DHT22;10137;49.406;19.484;2023-01-01T04:19:30;7.60;99.90
19952;DHT22;10137;49.406;19.484;2023-01-01T04:21:59;7.60;99.90
19952;DHT22;10137;49.406;19.484;2023-01-01T04:24:27;7.60;99.90
19952;DHT22;10137;49.406;19.484;2023-01-01T04:26:56;7.60;99.90
19952;DHT22;10137;49.406;19.484;2023-01-01T04:29:24;7.70;99.90
19952;DHT22;10137;49.406;19.484;2023-01-01T04:31:53;7.70;99.90
19952;DHT22;10137;49.406;19.484;2023-01-01T04:34:22;7.70;99.90
19952;DHT22;10137;49.406;19.484;2023-01-01T04:36:51;7.80;99.90
19952;DHT22;10137;49.406;19.484;2023-01-01T04:39:19;7.70;99.90
19952;DHT22;10137;49.406;19.484;2023-01-01T04:41:47;7.70;99.90
19952;DHT22;10137;49.406;19.484;2023-01-01T04:44:17;7.60;99.90
19952;DHT22;10137;49.406;19.484;2023-01-01T04:46:44;7.50;99.90
19952;DHT22;10137;49.406;19.484;2023-01-01T04:49:12;7.30;99.90
19952;DHT22;10137;49.406;19.484;2023-01-01T04:51:42;7.00;99.90
19952;DHT22;10137;49.406;19.484;2023-01-01T04:54:10;7.00;99.90
19952;DHT22;10137;49.406;19.484;2023-01-01T04:56:38;7.00;99.90
19952;DHT22;10137;49.406;19.484;2023-01-01T04:59:07;7.00;99.90
19952;DHT22;10137;49.406;19.484;2023-01-01T05:01:35;7.00;99.90
19952;DHT22;10137;49.406;19.484;2023-01-01T05:04:03;7.10;99.90
19952;DHT22;10137;49.406;19.484;2023-01-01T05:06:32;7.20;99.90
19952;DHT22;10137;49.406;19.484;2023-01-01T05:09:02;7.10;99.90
19952;DHT22;10137;49.406;19.484;2023-01-01T05:11:30;7.10;99.90
19952;DHT22;10137;49.406;19.484;2023-01-01T05:13:59;7.00;99.90
19952;DHT22;10137;49.406;19.484;2023-01-01T05:16:28;6.70;99.90
19952;DHT22;10137;49.406;19.484;2023-01-01T05:18:57;6.50;99.90
19952;DHT22;10137;49.406;19.484;2023-01-01T05:21:27;6.60;99.90
19952;DHT22;10137;49.406;19.484;2023-01-01T05:23:59;6.70;99.90
19952;DHT22;10137;49.406;19.484;2023-01-01T05:26:32;6.80;99.90
19952;DHT22;10137;49.406;19.484;2023-01-01T05:29:00;7.00;99.90
19952;DHT22;10137;49.406;19.484;2023-01-01T05:31:31;7.10;99.90
19952;DHT22;10137;49.406;19.484;2023-01-01T05:34:00;7.20;99.90
19952;DHT22;10137;49.406;19.484;2023-01-01T05:36:30;7.20;99.90
19952;DHT22;10137;49.406;19.484;2023-01-01T05:38:58;7.20;99.90
19952;DHT22;10137;49.406;19.484;2023-01-01T05:41:26;7.20;99.90
19952;DHT22;10137;49.406;19.484;2023-01-01T05:43:57;7.20;99.90
19952;DHT22;10137;49.406;19.484;2023-01-01T05:46:25;7.20;99.90
19952;DHT22;10137;49.406;19.484;2023-01-01T05:48:54;7.20;99.90
19952;DHT22;10137;49.406;19.484;2023-01-01T05:51:23;7.30;99.90
19952;DHT22;10137;49.406;19.484;2023-01-01T05:53:53;7.30;99.90
19952;DHT22;10137;49.406;19.484;2023-01-01T05:56:21;7.30;99.90
19952;DHT22;10137;49.406;19.484;2023-01-01T05:58:49;7.30;99.90
19952;DHT22;10137;49.406;19.484;2023-01-01T06:01:20;7.30;99.90
19952;DHT22;10137;49.406;19.484;2023-01-01T06:03:51;7.40;99.90
19952;DHT22;10137;49.406;19.484;2023-01-01T06:06:22;7.40;99.90
19952;DHT22;10137;49.406;19.484;2023-01-01T06:08:50;7.40;99.90
19952;DHT22;10137;49.406;19.484;2023-01-01T06:11:18;7.50;99.90
19952;DHT22;10137;49.406;19.484;2023-01-01T06:13:46;7.50;99.90
19952;DHT22;10137;49.406;19.484;2023-01-01T06:16:14;7.60;99.90
19952;DHT22;10137;49.406;19.484;2023-01-01T06:18:44;7.60;99.90
19952;DHT22;10137;49.406;19.484;2023-01-01T06:21:13;7.60;99.90
19952;DHT22;10137;49.406;19.484;2023-01-01T06:23:43;7.60;99.90
19952;DHT22;10137;49.406;19.484;2023-01-01T06:26:12;7.60;99.90
19952;DHT22;10137;49.406;19.484;2023-01-01T06:28:40;7.60;99.90
19952;DHT22;10137;49.406;19.484;2023-01-01T06:31:10;7.60;99.90
19952;DHT22;10137;49.406;19.484;2023-01-01T06:33:38;7.60;99.90
19952;DHT22;10137;49.406;19.484;2023-01-01T06:36:10;7.60;99.90
19952;DHT22;10137;49.406;19.484;2023-01-01T06:38:40;7.60;99.90
19952;DHT22;10137;49.406;19.484;2023-01-01T06:41:10;7.60;99.90
19952;DHT22;10137;49.406;19.484;2023-01-01T06:43:38;7.70;99.90
19952;DHT22;10137;49.406;19.484;2023-01-01T06:46:10;7.70;99.90
19952;DHT22;10137;49.406;19.484;2023-01-01T06:48:41;7.70;99.90
19952;DHT22;10137;49.406;19.484;2023-01-01T06:51:10;7.80;99.90
19952;DHT22;10137;49.406;19.484;2023-01-01T06:53:37;7.90;99.90
19952;DHT22;10137;49.406;19.484;2023-01-01T06:56:05;8.00;99.90
19952;DHT22;10137;49.406;19.484;2023-01-01T06:58:32;8.00;99.90
19952;DHT22;10137;49.406;19.484;2023-01-01T07:01:04;8.10;99.90
19952;DHT22;10137;49.406;19.484;2023-01-01T07:03:31;8.20;99.90
19952;DHT22;10137;49.406;19.484;2023-01-01T07:05:58;8.30;99.90
19952;DHT22;10137;49.406;19.484;2023-01-01T07:08:26;8.30;99.90
19952;DHT22;10137;49.406;19.484;2023-01-01T07:10:53;8.30;99.90
19952;DHT22;10137;49.406;19.484;2023-01-01T07:13:22;8.30;99.90
19952;DHT22;10137;49.406;19.484;2023-01-01T07:15:49;8.40;99.90
19952;DHT22;10137;49.406;19.484;2023-01-01T07:18:15;8.50;99.90
19952;DHT22;10137;49.406;19.484;2023-01-01T07:20:42;8.70;99.90
19952;DHT22;10137;49.406;19.484;2023-01-01T07:23:10;8.80;99.90
19952;DHT22;10137;49.406;19.484;2023-01-01T07:25:38;9.10;99.90
19952;DHT22;10137;49.406;19.484;2023-01-01T07:28:06;9.30;99.90
19952;DHT22;10137;49.406;19.484;2023-01-01T07:30:34;9.40;99.90
19952;DHT22;10137;49.406;19.484;2023-01-01T07:33:00;9.50;99.90
19952;DHT22;10137;49.406;19.484;2023-01-01T07:35:27;9.60;99.90
19952;DHT22;10137;49.406;19.484;2023-01-01T07:37:54;9.60;99.90
19952;DHT22;10137;49.406;19.484;2023-01-01T07:40:21;9.70;99.90
19952;DHT22;10137;49.406;19.484;2023-01-01T07:42:51;9.70;99.90
19952;DHT22;10137;49.406;19.484;2023-01-01T07:45:19;9.70;99.90
19952;DHT22;10137;49.406;19.484;2023-01-01T07:47:50;9.70;99.90
19952;DHT22;10137;49.406;19.484;2023-01-01T07:50:20;9.70;99.90
19952;DHT22;10137;49.406;19.484;2023-01-01T07:52:49;9.70;99.90
19952;DHT22;10137;49.406;19.484;2023-01-01T07:55:17;9.70;99.90
19952;DHT22;10137;49.406;19.484;2023-01-01T07:57:46;9.60;99.90
19952;DHT22;10137;49.406;19.484;2023-01-01T08:00:17;9.40;99.90
19952;DHT22;10137;49.406;19.484;2023-01-01T08:02:46;9.30;99.90
19952;DHT22;10137;49.406;19.484;2023-01-01T08:05:15;9.30;99.90
19952;DHT22;10137;49.406;19.484;2023-01-01T08:07:45;9.20;99.90
19952;DHT22;10137;49.406;19.484;2023-01-01T08:10:13;9.10;99.90
19952;DHT22;10137;49.406;19.484;2023-01-01T08:12:41;9.10;99.90
19952;DHT22;10137;49.406;19.484;2023-01-01T08:15:10;9.10;99.90
19952;DHT22;10137;49.406;19.484;2023-01-01T08:17:40;9.10;99.90
19952;DHT22;10137;49.406;19.484;2023-01-01T08:20:08;9.10;99.90
19952;DHT22;10137;49.406;19.484;2023-01-01T08:22:36;9.00;99.90
19952;DHT22;10137;49.406;19.484;2023-01-01T08:25:04;9.00;99.90
19952;DHT22;10137;49.406;19.484;2023-01-01T08:27:32;9.00;99.90
19952;DHT22;10137;49.406;19.484;2023-01-01T08:30:00;9.00;99.90
19952;DHT22;10137;49.406;19.484;2023-01-01T08:32:28;8.90;99.90
19952;DHT22;10137;49.406;19.484;2023-01-01T08:34:58;9.00;99.90
19952;DHT22;10137;49.406;19.484;2023-01-01T08:37:24;9.00;99.90
19952;DHT22;10137;49.406;19.484;2023-01-01T08:39:52;8.90;99.90
19952;DHT22;10137;49.406;19.484;2023-01-01T08:42:21;8.90;99.90
19952;DHT22;10137;49.406;19.484;2023-01-01T08:44:49;8.90;99.90
19952;DHT22;10137;49.406;19.484;2023-01-01T08:47:21;9.00;99.90
19952;DHT22;10137;49.406;19.484;2023-01-01T08:49:50;9.00;99.90
19952;DHT22;10137;49.406;19.484;2023-01-01T08:52:20;9.10;99.90
19952;DHT22;10137;49.406;19.484;2023-01-01T08:54:48;9.10;99.90
19952;DHT22;10137;49.406;19.484;2023-01-01T08:57:16;9.20;99.90
19952;DHT22;10137;49.406;19.484;2023-01-01T08:59:45;9.20;99.90
19952;DHT22;10137;49.406;19.484;2023-01-01T09:02:13;9.20;99.90
19952;DHT22;10137;49.406;19.484;2023-01-01T09:04:41;9.20;99.90
19952;DHT22;10137;49.406;19.484;2023-01-01T09:07:08;9.20;99.90
19952;DHT22;10137;49.406;19.484;2023-01-01T09:09:37;9.30;99.90
19952;DHT22;10137;49.406;19.484;2023-01-01T09:12:06;9.30;99.90
19952;DHT22;10137;49.406;19.484;2023-01-01T09:14:35;9.30;99.90
19952;DHT22;10137;49.406;19.484;2023-01-01T09:17:03;9.40;99.90
19952;DHT22;10137;49.406;19.484;2023-01-01T09:19:32;9.40;99.90
19952;DHT22;10137;49.406;19.484;2023-01-01T09:22:00;9.40;99.90
19952;DHT22;10137;49.406;19.484;2023-01-01T09:24:27;9.50;99.90
19952;DHT22;10137;49.406;19.484;2023-01-01T09:26:56;9.60;99.90
19952;DHT22;10137;49.406;19.484;2023-01-01T09:29:25;9.60;99.90
19952;DHT22;10137;49.406;19.484;2023-01-01T09:31:53;9.70;99.90
19952;DHT22;10137;49.406;19.484;2023-01-01T09:34:20;9.70;99.90
19952;DHT22;10137;49.406;19.484;2023-01-01T09:36:48;9.70;99.90
19952;DHT22;10137;49.406;19.484;2023-01-01T09:39:16;9.90;99.90
19952;DHT22;10137;49.406;19.484;2023-01-01T09:41:56;9.90;99.90
19952;DHT22;10137;49.406;19.484;2023-01-01T09:47:28;10.00;99.90
19952;DHT22;10137;49.406;19.484;2023-01-01T09:50:00;10.00;99.90
19952;DHT22;10137;49.406;19.484;2023-01-01T09:52:36;10.10;99.90
19952;DHT22;10137;49.406;19.484;2023-01-01T09:55:13;10.10;99.90
19952;DHT22;10137;49.406;19.484;2023-01-01T09:57:42;10.20;99.90
19952;DHT22;10137;49.406;19.484;2023-01-01T10:00:16;10.20;99.90
19952;DHT22;10137;49.406;19.484;2023-01-01T10:02:58;10.30;99.90
19952;DHT22;10137;49.406;19.484;2023-01-01T10:05:36;10.30;99.90
19952;DHT22;10137;49.406;19.484;2023-01-01T10:08:16;10.30;99.90
19952;DHT22;10137;49.406;19.484;2023-01-01T10:10:51;10.30;99.90
19952;DHT22;10137;49.406;19.484;2023-01-01T10:13:28;10.40;99.90
19952;DHT22;10137;49.406;19.484;2023-01-01T10:16:04;10.50;99.90
19952;DHT22;10137;49.406;19.484;2023-01-01T10:18:36;10.50;99.90
19952;DHT22;10137;49.406;19.484;2023-01-01T10:21:09;10.70;99.90
19952;DHT22;10137;49.406;19.484;2023-01-01T10:23:42;11.00;99.90
19952;DHT22;10137;49.406;19.484;2023-01-01T10:26:15;11.50;99.90
19952;DHT22;10137;49.406;19.484;2023-01-01T10:28:51;11.80;99.90
19952;DHT22;10137;49.406;19.484;2023-01-01T10:31:30;11.90;99.90
19952;DHT22;10137;49.406;19.484;2023-01-01T10:34:01;12.30;99.90
19952;DHT22;10137;49.406;19.484;2023-01-01T10:36:32;12.70;99.90
19952;DHT22;10137;49.406;19.484;2023-01-01T10:39:00;13.20;99.90
19952;DHT22;10137;49.406;19.484;2023-01-01T10:41:29;13.60;99.90
19952;DHT22;10137;49.406;19.484;2023-01-01T10:43:57;14.30;99.90
19952;DHT22;10137;49.406;19.484;2023-01-01T10:46:26;14.80;99.90
19952;DHT22;10137;49.406;19.484;2023-01-01T10:49:06;15.10;99.90
19952;DHT22;10137;49.406;19.484;2023-01-01T10:51:37;15.70;99.90
19952;DHT22;10137;49.406;19.484;2023-01-01T10:54:33;16.00;99.90
19952;DHT22;10137;49.406;19.484;2023-01-01T10:57:13;16.60;99.90
19952;DHT22;10137;49.406;19.484;2023-01-01T10:59:43;17.00;99.90
19952;DHT22;10137;49.406;19.484;2023-01-01T11:02:19;17.60;97.60
19952;DHT22;10137;49.406;19.484;2023-01-01T11:04:47;17.60;94.50
19952;DHT22;10137;49.406;19.484;2023-01-01T11:07:23;17.80;94.20
19952;DHT22;10137;49.406;19.484;2023-01-01T11:09:56;18.30;92.80
19952;DHT22;10137;49.406;19.484;2023-01-01T11:12:29;18.40;91.10
19952;DHT22;10137;49.406;19.484;2023-01-01T11:14:58;18.50;89.40
19952;DHT22;10137;49.406;19.484;2023-01-01T11:17:29;19.10;85.70
19952;DHT22;10137;49.406;19.484;2023-01-01T11:19:59;19.60;84.70
19952;DHT22;10137;49.406;19.484;2023-01-01T11:22:39;19.80;81.00
19952;DHT22;10137;49.406;19.484;2023-01-01T11:25:20;19.90;80.60
19952;DHT22;10137;49.406;19.484;2023-01-01T11:27:49;19.60;77.80
19952;DHT22;10137;49.406;19.484;2023-01-01T11:30:26;19.70;76.90
19952;DHT22;10137;49.406;19.484;2023-01-01T11:32:58;19.40;79.10
19952;DHT22;10137;49.406;19.484;2023-01-01T11:35:30;19.30;80.80
19952;DHT22;10137;49.406;19.484;2023-01-01T11:37:58;19.20;82.30
19952;DHT22;10137;49.406;19.484;2023-01-01T11:40:35;19.70;83.10
19952;DHT22;10137;49.406;19.484;2023-01-01T11:43:04;19.40;81.30
19952;DHT22;10137;49.406;19.484;2023-01-01T11:45:37;19.80;81.30
19952;DHT22;10137;49.406;19.484;2023-01-01T11:48:13;19.80;78.80
19952;DHT22;10137;49.406;19.484;2023-01-01T11:50:49;20.20;76.20
19952;DHT22;10137;49.406;19.484;2023-01-01T11:53:25;19.70;74.80
19952;DHT22;10137;49.406;19.484;2023-01-01T11:56:00;19.70;75.60
19952;DHT22;10137;49.406;19.484;2023-01-01T11:58:36;19.40;74.30
19952;DHT22;10137;49.406;19.484;2023-01-01T12:01:10;19.40;75.50
19952;DHT22;10137;49.406;19.484;2023-01-01T12:03:44;19.30;75.90
19952;DHT22;10137;49.406;19.484;2023-01-01T12:06:18;19.00;76.90
19952;DHT22;10137;49.406;19.484;2023-01-01T12:08:51;18.90;77.00
19952;DHT22;10137;49.406;19.484;2023-01-01T12:11:25;18.60;78.40
19952;DHT22;10137;49.406;19.484;2023-01-01T12:14:00;18.50;79.40
19952;DHT22;10137;49.406;19.484;2023-01-01T12:16:42;18.60;78.50
19952;DHT22;10137;49.406;19.484;2023-01-01T12:19:17;18.70;78.40
19952;DHT22;10137;49.406;19.484;2023-01-01T12:21:49;18.50;77.60
19952;DHT22;10137;49.406;19.484;2023-01-01T12:24:20;18.40;77.50
19952;DHT22;10137;49.406;19.484;2023-01-01T12:27:02;18.30;76.80
19952;DHT22;10137;49.406;19.484;2023-01-01T12:33:04;18.10;77.00
19952;DHT22;10137;49.406;19.484;2023-01-01T12:35:50;18.10;77.20
19952;DHT22;10137;49.406;19.484;2023-01-01T12:38:32;17.80;77.80
19952;DHT22;10137;49.406;19.484;2023-01-01T12:41:10;17.70;79.50
19952;DHT22;10137;49.406;19.484;2023-01-01T12:43:43;17.50;80.10
19952;DHT22;10137;49.406;19.484;2023-01-01T12:46:33;17.40;81.40
19952;DHT22;10137;49.406;19.484;2023-01-01T12:49:27;17.30;81.20
19952;DHT22;10137;49.406;19.484;2023-01-01T12:52:09;17.10;83.90
19952;DHT22;10137;49.406;19.484;2023-01-01T12:55:13;16.80;87.60
19952;DHT22;10137;49.406;19.484;2023-01-01T12:57:52;16.70;89.30
19952;DHT22;10137;49.406;19.484;2023-01-01T13:00:24;16.60;90.20
19952;DHT22;10137;49.406;19.484;2023-01-01T13:02:57;16.40;91.50
19952;DHT22;10137;49.406;19.484;2023-01-01T13:05:33;16.30;91.20
19952;DHT22;10137;49.406;19.484;2023-01-01T13:08:05;16.20;92.50
19952;DHT22;10137;49.406;19.484;2023-01-01T13:10:35;16.10;93.00
19952;DHT22;10137;49.406;19.484;2023-01-01T13:13:04;15.90;93.30
19952;DHT22;10137;49.406;19.484;2023-01-01T13:15:50;15.70;94.50
19952;DHT22;10137;49.406;19.484;2023-01-01T13:18:24;15.50;95.70
19952;DHT22;10137;49.406;19.484;2023-01-01T13:21:02;15.40;96.00
19952;DHT22;10137;49.406;19.484;2023-01-01T13:23:49;15.40;96.70
19952;DHT22;10137;49.406;19.484;2023-01-01T13:26:35;15.20;97.70
19952;DHT22;10137;49.406;19.484;2023-01-01T13:29:31;15.10;99.30
19952;DHT22;10137;49.406;19.484;2023-01-01T13:32:06;14.90;99.90
19952;DHT22;10137;49.406;19.484;2023-01-01T13:34:38;14.70;99.90
19952;DHT22;10137;49.406;19.484;2023-01-01T13:37:28;14.60;99.90
19952;DHT22;10137;49.406;19.484;2023-01-01T13:39:58;14.50;99.90
19952;DHT22;10137;49.406;19.484;2023-01-01T13:42:42;14.40;99.90
19952;DHT22;10137;49.406;19.484;2023-01-01T13:45:17;14.30;99.90
19952;DHT22;10137;49.406;19.484;2023-01-01T13:48:11;14.30;99.90
19952;DHT22;10137;49.406;19.484;2023-01-01T13:50:47;14.00;99.90
19952;DHT22;10137;49.406;19.484;2023-01-01T13:53:36;14.00;99.90
19952;DHT22;10137;49.406;19.484;2023-01-01T13:56:25;13.90;99.90
19952;DHT22;10137;49.406;19.484;2023-01-01T13:59:10;13.90;99.90
19952;DHT22;10137;49.406;19.484;2023-01-01T14:01:59;13.70;99.90
19952;DHT22;10137;49.406;19.484;2023-01-01T14:04:42;13.80;99.90
19952;DHT22;10137;49.406;19.484;2023-01-01T14:07:24;13.60;99.90
19952;DHT22;10137;49.406;19.484;2023-01-01T14:10:14;13.60;99.90
19952;DHT22;10137;49.406;19.484;2023-01-01T14:12:43;13.60;99.90
19952;DHT22;10137;49.406;19.484;2023-01-01T14:15:15;13.50;99.90
19952;DHT22;10137;49.406;19.484;2023-01-01T14:17:43;13.50;99.90
19952;DHT22;10137;49.406;19.484;2023-01-01T14:20:16;13.40;99.90
19952;DHT22;10137;49.406;19.484;2023-01-01T14:22:45;13.40;99.90
19952;DHT22;10137;49.406;19.484;2023-01-01T14:25:15;13.30;99.90
19952;DHT22;10137;49.406;19.484;2023-01-01T14:27:46;13.20;99.90
19952;DHT22;10137;49.406;19.484;2023-01-01T14:30:18;13.20;99.90
19952;DHT22;10137;49.406;19.484;2023-01-01T14:32:57;13.10;99.90
19952;DHT22;10137;49.406;19.484;2023-01-01T14:35:29;13.00;99.90
19952;DHT22;10137;49.406;19.484;2023-01-01T14:38:17;12.90;99.90
19952;DHT22;10137;49.406;19.484;2023-01-01T14:41:06;12.80;99.90
19952;DHT22;10137;49.406;19.484;2023-01-01T14:43:38;12.60;99.90
19952;DHT22;10137;49.406;19.484;2023-01-01T14:46:06;12.50;99.90
19952;DHT22;10137;49.406;19.484;2023-01-01T14:48:34;12.30;99.90
19952;DHT22;10137;49.406;19.484;2023-01-01T14:51:03;12.30;99.90
19952;DHT22;10137;49.406;19.484;2023-01-01T14:53:32;12.30;99.90
19952;DHT22;10137;49.406;19.484;2023-01-01T14:56:00;12.30;99.90
19952;DHT22;10137;49.406;19.484;2023-01-01T14:58:33;12.20;99.90
19952;DHT22;10137;49.406;19.484;2023-01-01T15:01:20;12.20;99.90
19952;DHT22;10137;49.406;19.484;2023-01-01T15:03:59;12.00;99.90
19952;DHT22;10137;49.406;19.484;2023-01-01T15:06:27;12.00;99.90
19952;DHT22;10137;49.406;19.484;2023-01-01T15:08:55;11.80;99.90
19952;DHT22;10137;49.406;19.484;2023-01-01T15:11:24;11.80;99.90
19952;DHT22;10137;49.406;19.484;2023-01-01T15:13:55;11.60;99.90
19952;DHT22;10137;49.406;19.484;2023-01-01T15:16:25;11.40;99.90
19952;DHT22;10137;49.406;19.484;2023-01-01T15:18:54;11.30;99.90
19952;DHT22;10137;49.406;19.484;2023-01-01T15:21:37;11.30;99.90
19952;DHT22;10137;49.406;19.484;2023-01-01T15:24:10;11.20;99.90
19952;DHT22;10137;49.406;19.484;2023-01-01T15:26:41;11.20;99.90
19952;DHT22;10137;49.406;19.484;2023-01-01T15:29:16;11.20;99.90
19952;DHT22;10137;49.406;19.484;2023-01-01T15:31:53;11.20;99.90
19952;DHT22;10137;49.406;19.484;2023-01-01T15:34:22;11.10;99.90
19952;DHT22;10137;49.406;19.484;2023-01-01T15:36:55;11.00;99.90
19952;DHT22;10137;49.406;19.484;2023-01-01T15:39:24;11.00;99.90
19952;DHT22;10137;49.406;19.484;2023-01-01T15:41:52;11.00;99.90
19952;DHT22;10137;49.406;19.484;2023-01-01T15:44:26;10.90;99.90
19952;DHT22;10137;49.406;19.484;2023-01-01T15:47:08;10.90;99.90
19952;DHT22;10137;49.406;19.484;2023-01-01T15:49:38;10.70;99.90
19952;DHT22;10137;49.406;19.484;2023-01-01T15:52:15;10.60;99.90
19952;DHT22;10137;49.406;19.484;2023-01-01T15:54:44;10.50;99.90
19952;DHT22;10137;49.406;19.484;2023-01-01T15:57:17;10.30;99.90
19952;DHT22;10137;49.406;19.484;2023-01-01T15:59:47;10.20;99.90
19952;DHT22;10137;49.406;19.484;2023-01-01T16:02:20;10.20;99.90
19952;DHT22;10137;49.406;19.484;2023-01-01T16:04:51;10.00;99.90
19952;DHT22;10137;49.406;19.484;2023-01-01T16:07:20;10.10;99.90
19952;DHT22;10137;49.406;19.484;2023-01-01T16:09:50;9.90;99.90